createdAt,value
2023-03-31T00:01:15.295Z,23.23
2023-03-31T00:03:44.815Z,23.60
2023-03-31T00:06:18.706Z,22.20
2023-03-31T00:08:52.502Z,22.35
2023-03-31T00:11:22.572Z,22.48
2023-03-31T00:13:51.161Z,23.10
2023-03-31T00:16:19.344Z,25.92
2023-03-31T00:18:50.902Z,22.42
2023-03-31T00:21:33.971Z,23.77
2023-03-31T00:24:07.343Z,21.40
2023-03-31T00:26:35.751Z,22.90
2023-03-31T00:29:08.513Z,23.13
2023-03-31T00:31:36.511Z,23.92
2023-03-31T00:34:04.121Z,22.60
2023-03-31T00:36:36.866Z,21.67
2023-03-31T00:39:09.779Z,22.33
2023-03-31T00:41:39.519Z,22.92
2023-03-31T00:44:24.919Z,23.10
2023-03-31T00:46:55.929Z,23.90
2023-03-31T00:49:36.601Z,22.73
2023-03-31T00:52:13.579Z,24.00
2023-03-31T00:54:44.744Z,25.25
2023-03-31T00:57:13.821Z,25.02
2023-03-31T00:59:49.774Z,26.08
2023-03-31T01:02:20.822Z,22.67
2023-03-31T01:04:55.794Z,25.52
2023-03-31T01:07:33.703Z,24.42
2023-03-31T01:10:05.245Z,24.30
2023-03-31T01:12:37.205Z,22.38
2023-03-31T01:15:07.485Z,24.23
2023-03-31T01:17:35.949Z,27.02
2023-03-31T01:20:12.130Z,28.17
2023-03-31T01:23:05.569Z,27.25
2023-03-31T01:25:52.657Z,26.50
2023-03-31T01:28:26.821Z,26.38
2023-03-31T01:31:13.546Z,26.23
2023-03-31T01:33:58.879Z,25.10
2023-03-31T01:37:03.334Z,28.05
2023-03-31T01:39:45.918Z,26.80
2023-03-31T01:42:33.530Z,25.73
2023-03-31T01:45:08.658Z,27.25
2023-03-31T01:47:50.935Z,28.55
2023-03-31T01:50:28.294Z,27.05
2023-03-31T01:53:15.331Z,27.40
2023-03-31T01:56:04.573Z,28.60
2023-03-31T01:58:39.158Z,24.95
2023-03-31T02:01:38.098Z,28.73
2023-03-31T02:04:21.727Z,26.13
2023-03-31T02:06:59.409Z,26.40
2023-03-31T02:09:34.460Z,27.30
2023-03-31T02:12:06.737Z,26.73
2023-03-31T02:14:41.257Z,27.23
2023-03-31T02:17:18.225Z,27.80
2023-03-31T02:19:52.285Z,27.58
2023-03-31T02:22:22.391Z,27.40
2023-03-31T02:24:52.979Z,27.70
2023-03-31T02:27:35.798Z,28.05
2023-03-31T02:30:04.736Z,27.58
2023-03-31T02:32:40.678Z,26.05
2023-03-31T02:35:13.302Z,27.15
2023-03-31T02:37:42.489Z,27.92
2023-03-31T02:40:17.147Z,25.23
2023-03-31T02:42:45.505Z,27.17
2023-03-31T02:45:51.866Z,26.10
2023-03-31T02:48:22.482Z,26.40
2023-03-31T02:51:09.460Z,27.35
2023-03-31T02:53:58.936Z,28.02
2023-03-31T02:56:53.499Z,26.23
2023-03-31T02:59:24.102Z,27.95
2023-03-31T03:01:56.469Z,27.73
2023-03-31T03:04:59.556Z,25.17
2023-03-31T03:07:49.949Z,26.90
2023-03-31T03:10:26.949Z,26.60
2023-03-31T03:13:23.912Z,26.13
2023-03-31T03:16:13.973Z,27.05
2023-03-31T03:18:42.049Z,26.27
2023-03-31T03:21:10.638Z,28.38
2023-03-31T03:23:38.462Z,25.90
2023-03-31T03:26:07.336Z,24.15
2023-03-31T03:28:36.806Z,26.98
2023-03-31T03:31:04.518Z,25.75
2023-03-31T03:33:33.108Z,26.50
2023-03-31T03:36:01.414Z,25.35
2023-03-31T03:38:29.455Z,25.92
2023-03-31T03:40:57.669Z,25.77
2023-03-31T03:43:25.986Z,27.40
2023-03-31T03:45:53.799Z,25.40
2023-03-31T03:48:21.567Z,23.85
2023-03-31T03:50:49.603Z,22.95
2023-03-31T03:53:17.453Z,26.10
2023-03-31T03:55:49.013Z,23.25
2023-03-31T03:58:19.815Z,24.30
2023-03-31T04:00:48.205Z,22.80
2023-03-31T04:03:16.615Z,25.23
2023-03-31T04:05:44.797Z,24.13
2023-03-31T04:08:12.341Z,24.23
2023-03-31T04:10:45.611Z,25.77
2023-03-31T04:13:13.627Z,23.77
2023-03-31T04:15:41.490Z,24.45
2023-03-31T04:18:23.306Z,25.25
2023-03-31T04:21:04.286Z,24.10
2023-03-31T04:23:42.824Z,25.20
2023-03-31T04:26:11.340Z,25.58
2023-03-31T04:28:42.863Z,25.30
2023-03-31T04:31:16.155Z,25.05
2023-03-31T04:33:46.297Z,25.50
2023-03-31T04:36:20.060Z,24.52
2023-03-31T04:41:19.577Z,23.08
2023-03-31T04:43:47.436Z,23.10
2023-03-31T04:46:15.920Z,22.67
2023-03-31T04:48:44.027Z,24.45
2023-03-31T04:51:15.390Z,24.38
2023-03-31T04:53:43.580Z,24.58
2023-03-31T04:56:12.427Z,24.67
2023-03-31T04:58:40.649Z,24.10
2023-03-31T05:01:08.427Z,24.30
2023-03-31T05:03:36.537Z,25.25
2023-03-31T05:06:04.602Z,24.13
2023-03-31T05:08:33.591Z,24.17
2023-03-31T05:11:03.682Z,23.63
2023-03-31T05:13:31.243Z,24.73
2023-03-31T05:15:58.900Z,23.42
2023-03-31T05:18:26.950Z,24.30
2023-03-31T05:20:54.541Z,24.90
2023-03-31T05:23:23.183Z,24.13
2023-03-31T05:25:51.340Z,23.55
2023-03-31T05:28:19.397Z,24.65
2023-03-31T05:30:47.428Z,23.33
2023-03-31T05:33:15.875Z,25.02
2023-03-31T05:35:44.648Z,26.20
2023-03-31T05:38:12.194Z,25.80
2023-03-31T05:40:39.806Z,25.90
2023-03-31T05:43:08.004Z,26.02
2023-03-31T05:45:36.400Z,25.08
2023-03-31T05:48:04.646Z,27.52
2023-03-31T05:50:32.817Z,27.40
2023-03-31T05:53:00.582Z,25.50
2023-03-31T05:55:28.548Z,24.92
2023-03-31T05:57:56.883Z,25.88
2023-03-31T06:00:25.027Z,26.40
2023-03-31T06:02:52.643Z,27.10
2023-03-31T06:05:20.862Z,25.30
2023-03-31T06:07:48.851Z,24.10
2023-03-31T06:10:17.373Z,26.40
2023-03-31T06:12:45.339Z,26.75
2023-03-31T06:15:12.956Z,24.27
2023-03-31T06:17:41.345Z,24.60
2023-03-31T06:20:23.965Z,23.95
2023-03-31T06:22:55.292Z,30.20
2023-03-31T06:25:22.917Z,25.08
2023-03-31T06:27:50.994Z,25.85
2023-03-31T06:30:19.254Z,27.35
2023-03-31T06:32:47.250Z,25.83
2023-03-31T06:35:15.577Z,25.25
2023-03-31T06:37:43.650Z,26.02
2023-03-31T06:40:11.785Z,27.08
2023-03-31T06:42:39.866Z,25.17
2023-03-31T06:45:08.621Z,25.40
2023-03-31T06:47:41.692Z,24.65
2023-03-31T06:50:10.914Z,26.40
2023-03-31T06:52:40.977Z,25.38
2023-03-31T06:55:09.975Z,25.23
2023-03-31T06:57:37.592Z,25.33
2023-03-31T07:00:07.813Z,25.80
2023-03-31T07:02:37.396Z,25.08
2023-03-31T07:05:05.458Z,25.85
2023-03-31T07:07:34.224Z,24.55
2023-03-31T07:10:02.432Z,29.85
2023-03-31T07:12:34.128Z,28.48
2023-03-31T07:15:02.414Z,28.65
2023-03-31T07:17:30.014Z,30.35
2023-03-31T07:19:59.087Z,28.50
2023-03-31T07:22:26.689Z,29.55
2023-03-31T07:24:54.750Z,26.50
2023-03-31T07:27:25.588Z,27.00
2023-03-31T07:29:53.940Z,24.73
2023-03-31T07:32:24.128Z,24.52
2023-03-31T07:34:52.718Z,25.25
2023-03-31T07:37:20.701Z,29.08
2023-03-31T07:39:48.797Z,26.23
2023-03-31T07:42:16.515Z,25.77
2023-03-31T07:44:44.369Z,25.40
2023-03-31T07:47:12.004Z,25.70
2023-03-31T07:49:39.635Z,24.50
2023-03-31T07:52:07.386Z,26.58
2023-03-31T07:54:36.076Z,25.83
2023-03-31T07:57:06.274Z,24.95
2023-03-31T07:59:35.029Z,27.65
2023-03-31T08:02:03.185Z,25.33
2023-03-31T08:04:31.340Z,26.38
2023-03-31T08:06:59.442Z,27.38
2023-03-31T08:09:27.334Z,27.77
2023-03-31T08:11:55.682Z,26.65
2023-03-31T08:14:34.155Z,28.10
2023-03-31T08:17:12.309Z,27.52
2023-03-31T08:19:40.439Z,28.05
2023-03-31T08:22:08.068Z,27.33
2023-03-31T08:24:36.181Z,25.08
2023-03-31T08:27:03.727Z,23.95
2023-03-31T08:29:31.249Z,24.02
2023-03-31T08:31:59.502Z,26.55
2023-03-31T08:34:27.396Z,26.75
2023-03-31T08:36:55.833Z,25.08
2023-03-31T08:39:23.823Z,23.08
2023-03-31T08:42:02.601Z,23.42
2023-03-31T08:44:42.504Z,26.42
2023-03-31T08:47:18.358Z,26.80
2023-03-31T08:49:51.206Z,25.02
2023-03-31T08:52:25.297Z,24.17
2023-03-31T08:54:58.508Z,22.38
2023-03-31T08:57:31.920Z,23.85
2023-03-31T09:00:07.076Z,23.90
2023-03-31T09:02:50.763Z,24.67
2023-03-31T09:05:59.608Z,22.75
2023-03-31T09:08:39.561Z,23.67
2023-03-31T09:11:33.764Z,25.55
2023-03-31T09:14:18.259Z,25.90
2023-03-31T09:17:09.017Z,27.67
2023-03-31T09:20:01.824Z,25.60
2023-03-31T09:22:39.136Z,27.00
2023-03-31T09:25:28.298Z,26.67
2023-03-31T09:27:58.275Z,27.63
2023-03-31T09:30:36.760Z,28.83
2023-03-31T09:33:34.463Z,28.23
2023-03-31T09:36:03.539Z,26.73
2023-03-31T09:38:31.476Z,29.13
2023-03-31T09:41:03.057Z,27.55
2023-03-31T09:43:35.697Z,29.90
2023-03-31T09:46:13.092Z,30.10
2023-03-31T09:48:48.506Z,32.13
2023-03-31T09:51:26.554Z,31.20
2023-03-31T09:54:03.829Z,28.63
2023-03-31T09:56:46.122Z,29.13
2023-03-31T09:59:19.360Z,30.98
2023-03-31T10:01:50.865Z,30.55
2023-03-31T10:04:26.262Z,30.77
2023-03-31T10:06:55.631Z,30.17
2023-03-31T10:09:31.036Z,30.45
2023-03-31T10:12:15.895Z,31.70
2023-03-31T10:14:50.174Z,32.08
2023-03-31T10:17:21.963Z,31.00
2023-03-31T10:20:00.583Z,32.22
2023-03-31T10:22:29.766Z,31.88
2023-03-31T10:25:10.998Z,31.98
2023-03-31T10:27:42.248Z,32.45
2023-03-31T10:30:13.111Z,30.65
2023-03-31T10:32:45.877Z,32.47
2023-03-31T10:35:30.341Z,30.80
2023-03-31T10:40:32.833Z,28.95
2023-03-31T10:43:18.173Z,30.20
2023-03-31T10:45:56.391Z,30.95
2023-03-31T10:48:30.862Z,28.25
2023-03-31T10:51:06.731Z,29.23
2023-03-31T10:53:49.955Z,29.60
2023-03-31T10:56:42.056Z,31.58
2023-03-31T10:59:30.999Z,30.60
2023-03-31T11:02:17.556Z,29.80
2023-03-31T11:05:04.719Z,29.05
2023-03-31T11:08:02.397Z,27.70
2023-03-31T11:10:39.293Z,30.05
2023-03-31T11:13:07.243Z,28.45
2023-03-31T11:16:04.519Z,27.88
2023-03-31T11:18:48.578Z,29.40
2023-03-31T11:24:23.120Z,27.00
2023-03-31T11:27:13.027Z,27.05
2023-03-31T11:29:54.390Z,27.05
2023-03-31T11:32:41.332Z,25.90
2023-03-31T11:35:44.390Z,26.35
2023-03-31T11:39:00.299Z,25.25
2023-03-31T11:41:52.773Z,24.63
2023-03-31T11:44:24.436Z,24.58
2023-03-31T11:47:00.297Z,24.25
2023-03-31T11:49:38.191Z,23.83
2023-03-31T11:52:17.149Z,23.35
2023-03-31T11:55:22.034Z,21.70
2023-03-31T11:58:22.183Z,22.25
2023-03-31T12:01:10.109Z,18.13
2023-03-31T12:04:00.662Z,16.33
2023-03-31T12:06:35.513Z,15.18
2023-03-31T12:09:41.137Z,17.85
2023-03-31T12:12:12.410Z,17.05
2023-03-31T12:14:47.368Z,19.38
2023-03-31T12:17:19.955Z,18.02
2023-03-31T12:19:56.777Z,15.40
2023-03-31T12:22:43.385Z,16.10
2023-03-31T12:25:23.259Z,17.27
2023-03-31T12:27:52.093Z,18.42
2023-03-31T12:30:29.409Z,14.98
2023-03-31T12:33:06.615Z,12.95
2023-03-31T12:36:06.837Z,12.68
2023-03-31T12:39:13.270Z,14.05
2023-03-31T12:42:09.528Z,12.93
2023-03-31T12:45:00.026Z,13.65
2023-03-31T12:47:34.611Z,12.68
2023-03-31T12:50:24.182Z,11.55
2023-03-31T12:53:05.748Z,11.55
2023-03-31T12:55:41.048Z,11.93
2023-03-31T12:58:32.459Z,13.20
2023-03-31T13:01:19.397Z,14.10
2023-03-31T13:04:06.342Z,13.23
2023-03-31T13:06:34.475Z,12.75
2023-03-31T13:09:08.938Z,12.35
2023-03-31T13:11:38.906Z,12.57
2023-03-31T13:14:12.979Z,11.35
2023-03-31T13:16:41.326Z,11.63
2023-03-31T13:19:12.882Z,11.60
2023-03-31T13:22:07.418Z,10.85
2023-03-31T13:27:28.900Z,12.98
2023-03-31T13:29:57.288Z,14.13
2023-03-31T13:32:26.916Z,13.48
2023-03-31T13:34:55.446Z,14.57
2023-03-31T13:37:54.302Z,14.40
2023-03-31T13:40:31.324Z,13.48
2023-03-31T13:43:23.832Z,14.20
2023-03-31T13:46:04.519Z,13.75
2023-03-31T13:48:38.442Z,13.88
2023-03-31T13:51:12.491Z,13.90
2023-03-31T13:54:24.968Z,14.13
2023-03-31T13:57:20.142Z,12.18
2023-03-31T14:00:12.563Z,11.63
2023-03-31T14:03:17.679Z,12.77
2023-03-31T14:05:56.150Z,12.02
2023-03-31T14:08:44.580Z,11.88
2023-03-31T14:11:32.417Z,11.38
2023-03-31T14:14:16.119Z,10.23
2023-03-31T14:16:54.371Z,9.35
2023-03-31T14:19:54.916Z,9.35
2023-03-31T14:22:44.457Z,9.73
2023-03-31T14:25:31.344Z,10.00
2023-03-31T14:28:20.923Z,9.32
2023-03-31T14:31:24.145Z,8.90
2023-03-31T14:34:14.335Z,10.23
2023-03-31T14:36:58.073Z,11.35
2023-03-31T14:39:37.166Z,10.50
2023-03-31T14:42:11.988Z,10.93
2023-03-31T14:44:42.649Z,10.88
2023-03-31T14:47:16.581Z,10.88
2023-03-31T14:49:45.350Z,11.07
2023-03-31T14:52:19.056Z,12.27
2023-03-31T14:54:47.864Z,12.00
2023-03-31T14:57:20.978Z,13.25
2023-03-31T14:59:53.143Z,13.05
2023-03-31T15:02:33.331Z,13.30
2023-03-31T15:05:10.854Z,14.15
2023-03-31T15:07:41.966Z,15.15
2023-03-31T15:10:20.527Z,15.05
2023-03-31T15:12:51.085Z,16.20
2023-03-31T15:15:20.845Z,16.45
2023-03-31T15:17:49.174Z,15.10
2023-03-31T15:20:35.282Z,15.43
2023-03-31T15:23:21.389Z,16.02
2023-03-31T15:25:49.459Z,14.10
2023-03-31T15:28:19.038Z,15.25
2023-03-31T15:30:54.327Z,14.55
2023-03-31T15:36:31.249Z,13.52
2023-03-31T15:38:59.878Z,12.65
2023-03-31T15:41:31.891Z,13.82
2023-03-31T15:44:27.137Z,12.70
2023-03-31T15:47:01.159Z,13.38
2023-03-31T15:49:30.514Z,13.73
2023-03-31T15:52:00.670Z,12.90
2023-03-31T15:54:53.496Z,13.45
2023-03-31T15:57:22.527Z,12.32
2023-03-31T15:59:56.700Z,12.27
2023-03-31T16:02:47.129Z,13.75
2023-03-31T16:08:43.029Z,14.10
2023-03-31T16:11:19.322Z,13.20
2023-03-31T16:13:52.390Z,12.23
2023-03-31T16:16:23.305Z,12.38
2023-03-31T16:18:58.021Z,11.52
2023-03-31T16:21:29.121Z,13.40
2023-03-31T16:23:59.870Z,12.50
2023-03-31T16:26:29.377Z,13.48
2023-03-31T16:28:57.728Z,12.98
2023-03-31T16:31:39.591Z,15.18
2023-03-31T16:34:09.981Z,15.35
2023-03-31T16:36:38.434Z,14.85
2023-03-31T16:39:07.164Z,14.05
2023-03-31T16:41:37.758Z,14.93
2023-03-31T16:44:06.483Z,15.73
2023-03-31T16:46:34.355Z,14.07
2023-03-31T16:49:02.575Z,15.98
2023-03-31T16:51:30.950Z,13.20
2023-03-31T16:53:59.542Z,15.90
2023-03-31T16:56:27.794Z,15.35
2023-03-31T16:58:56.395Z,17.13
2023-03-31T17:01:24.363Z,17.13
2023-03-31T17:03:53.074Z,16.35
2023-03-31T17:06:20.663Z,17.52
2023-03-31T17:08:48.735Z,17.55
2023-03-31T17:11:17.519Z,16.83
2023-03-31T17:13:46.655Z,16.98
2023-03-31T17:16:19.176Z,75.45
2023-03-31T17:18:55.228Z,48.22
2023-03-31T17:21:23.803Z,127.03
2023-03-31T17:23:51.567Z,24.33
2023-03-31T17:26:20.116Z,15.52
2023-03-31T17:28:47.877Z,15.70
2023-03-31T17:31:17.687Z,14.73
2023-03-31T17:33:46.809Z,16.13
2023-03-31T17:36:15.696Z,16.63
2023-03-31T17:38:43.355Z,15.75
2023-03-31T17:41:13.156Z,17.13
2023-03-31T17:43:45.526Z,17.23
2023-03-31T17:46:14.184Z,18.08
2023-03-31T17:48:43.364Z,16.48
2023-03-31T17:51:15.092Z,17.10
2023-03-31T17:53:45.340Z,17.73
2023-03-31T17:56:14.763Z,40.92
2023-03-31T17:58:43.082Z,27.45
2023-03-31T18:01:11.954Z,19.42
2023-03-31T18:03:39.884Z,19.02
2023-03-31T18:06:11.799Z,18.42
2023-03-31T18:08:40.331Z,18.88
2023-03-31T18:11:09.903Z,16.77
2023-03-31T18:13:38.954Z,16.77
2023-03-31T18:16:13.016Z,20.45
2023-03-31T18:18:42.533Z,22.52
2023-03-31T18:21:13.200Z,25.75
2023-03-31T18:23:41.996Z,25.35
2023-03-31T18:26:12.338Z,21.80
2023-03-31T18:28:41.021Z,20.60
2023-03-31T18:31:09.943Z,18.60
2023-03-31T18:33:39.840Z,21.13
2023-03-31T18:36:09.359Z,20.23
2023-03-31T18:38:37.644Z,22.05
2023-03-31T18:41:05.278Z,18.83
2023-03-31T18:43:33.461Z,19.88
2023-03-31T18:46:01.898Z,19.63
2023-03-31T18:48:30.469Z,21.13
2023-03-31T18:50:58.432Z,19.23
2023-03-31T18:53:28.008Z,20.55
2023-03-31T18:55:58.643Z,20.05
2023-03-31T18:58:29.521Z,21.20
2023-03-31T19:00:59.036Z,20.23
2023-03-31T19:03:27.431Z,19.17
2023-03-31T19:06:10.244Z,21.20
2023-03-31T19:08:39.594Z,22.17
2023-03-31T19:11:15.451Z,22.77
2023-03-31T19:13:44.339Z,21.75
2023-03-31T19:16:13.490Z,21.60
2023-03-31T19:18:43.779Z,23.13
2023-03-31T19:21:11.878Z,22.73
2023-03-31T19:23:39.837Z,23.40
2023-03-31T19:26:07.863Z,24.90
2023-03-31T19:28:37.189Z,22.38
2023-03-31T19:31:05.855Z,24.25
2023-03-31T19:33:33.712Z,23.92
2023-03-31T19:36:02.122Z,23.33
2023-03-31T19:38:32.363Z,23.35
2023-03-31T19:41:00.532Z,23.80
2023-03-31T19:43:30.258Z,22.67
2023-03-31T19:45:59.588Z,24.33
2023-03-31T19:48:31.438Z,22.73
2023-03-31T19:51:01.631Z,23.23
2023-03-31T19:53:30.547Z,22.60
2023-03-31T19:56:08.175Z,22.90
2023-03-31T19:58:37.522Z,25.15
2023-03-31T20:01:08.950Z,26.40
2023-03-31T20:03:37.906Z,25.05
2023-03-31T20:06:12.365Z,24.77
2023-03-31T20:08:42.809Z,26.45
2023-03-31T20:11:14.199Z,26.33
2023-03-31T20:13:43.445Z,25.77
2023-03-31T20:16:18.346Z,24.05
2023-03-31T20:18:54.804Z,22.98
2023-03-31T20:21:26.209Z,24.08
2023-03-31T20:23:55.154Z,24.73
2023-03-31T20:26:26.454Z,25.50
2023-03-31T20:28:56.068Z,26.27
2023-03-31T20:31:27.490Z,25.13
2023-03-31T20:33:56.514Z,25.23
2023-03-31T20:36:28.931Z,24.67
2023-03-31T20:38:58.345Z,24.65
2023-03-31T20:41:28.741Z,25.83
2023-03-31T20:43:56.991Z,23.80
2023-03-31T20:46:25.622Z,24.20
2023-03-31T20:48:56.765Z,23.27
2023-03-31T20:51:30.455Z,25.17
2023-03-31T20:54:00.200Z,23.25
2023-03-31T20:56:39.776Z,22.90
2023-03-31T20:59:13.057Z,24.73
2023-03-31T21:01:42.689Z,24.48
2023-03-31T21:04:11.631Z,25.80
2023-03-31T21:06:45.524Z,27.63
2023-03-31T21:09:14.827Z,27.40
2023-03-31T21:11:43.512Z,25.15
2023-03-31T21:14:14.267Z,24.55
2023-03-31T21:16:42.888Z,23.25
2023-03-31T21:19:10.773Z,25.02
2023-03-31T21:21:41.556Z,25.98
2023-03-31T21:24:11.717Z,25.58
2023-03-31T21:26:40.408Z,25.02
2023-03-31T21:29:08.563Z,26.08
2023-03-31T21:31:36.680Z,24.00
2023-03-31T21:34:04.690Z,24.58
2023-03-31T21:36:32.450Z,28.30
2023-03-31T21:39:00.030Z,27.10
2023-03-31T21:41:30.610Z,24.25
2023-03-31T21:44:02.407Z,25.02
2023-03-31T21:46:33.844Z,24.58
2023-03-31T21:49:02.717Z,24.40
2023-03-31T21:51:31.098Z,25.50
2023-03-31T21:53:58.881Z,26.00
2023-03-31T21:56:28.394Z,25.35
2023-03-31T21:59:01.595Z,26.23
2023-03-31T22:01:30.637Z,25.45
2023-03-31T22:03:59.557Z,24.35
2023-03-31T22:06:28.046Z,25.80
2023-03-31T22:08:55.620Z,24.40
2023-03-31T22:11:23.762Z,26.42
2023-03-31T22:13:51.406Z,26.23
2023-03-31T22:16:22.037Z,25.63
2023-03-31T22:18:50.737Z,26.17
2023-03-31T22:21:24.710Z,27.95
2023-03-31T22:23:54.879Z,28.98
2023-03-31T22:26:23.594Z,29.52
2023-03-31T22:28:51.485Z,26.38
2023-03-31T22:31:20.731Z,29.40
2023-03-31T22:33:49.730Z,27.85
2023-03-31T22:36:17.510Z,29.73
2023-03-31T22:38:45.293Z,29.02
2023-03-31T22:41:13.503Z,27.48
2023-03-31T22:43:44.615Z,27.55
2023-03-31T22:46:14.332Z,27.45
2023-03-31T22:48:42.476Z,33.05
2023-03-31T22:51:12.139Z,28.75
2023-03-31T22:53:40.502Z,29.13
2023-03-31T22:56:12.231Z,29.20
2023-03-31T22:58:39.933Z,26.85
2023-03-31T23:01:09.895Z,27.80
2023-03-31T23:03:37.852Z,29.60
2023-03-31T23:06:06.628Z,27.88
2023-03-31T23:08:36.946Z,29.20
2023-03-31T23:11:07.705Z,27.55
2023-03-31T23:13:36.129Z,28.35
2023-03-31T23:16:10.375Z,28.75
2023-03-31T23:18:45.996Z,29.73
2023-03-31T23:21:15.214Z,31.95
2023-03-31T23:23:42.945Z,30.90
2023-03-31T23:26:12.441Z,29.48
2023-03-31T23:28:40.115Z,29.73
2023-03-31T23:31:08.080Z,28.80
2023-03-31T23:33:36.745Z,26.20
2023-03-31T23:36:07.555Z,28.65
2023-03-31T23:38:35.776Z,31.35
2023-03-31T23:41:03.898Z,31.30
2023-03-31T23:43:32.420Z,30.33
2023-03-31T23:46:02.736Z,29.20
2023-03-31T23:48:31.448Z,30.58
2023-03-31T23:50:59.077Z,29.50
2023-03-31T23:53:27.551Z,31.38
2023-03-31T23:55:57.911Z,33.90
2023-03-31T23:58:26.667Z,34.90
